Terminal Aerodrome Forecast
Issued by NWS Brownsville, TX

Home | Current Version | Previous Version | Text Only | Print | Product List | Glossary On
Versions: 1 2 3 4 5 6 7 8 9 10 11 12 13 14 15 16
608
FTUS44 KBRO 260120 AAA
TAFMFE
TAF AMD
KMFE 260120Z 2601/2624 15012G17KT P6SM SKC
     FM260300 14008KT P6SM SCT025 SCT250
     FM260800 15011KT P6SM BKN020 OVC250
     FM261500 16014G21KT P6SM SCT025 SCT250
     FM261900 15020G26KT P6SM FEW050 SCT250=

USA.gov is the U.S. government's official web portal to all federal, state and local government web resources and services.